sensor_id;sensor_type;location;lat;lon;timestamp;P1;durP1;ratioP1;P2;durP2;ratioP2
78895;SDS011;68284;59.124;37.910;2023-03-05T14:52:40;2.88;;;2.20;;
78895;SDS011;68284;59.124;37.910;2023-03-05T14:57:38;5.15;;;3.35;;
78895;SDS011;68284;59.124;37.910;2023-03-05T15:00:05;3.08;;;2.78;;
78895;SDS011;68284;59.124;37.910;2023-03-05T15:02:39;2.97;;;2.55;;
78895;SDS011;68284;59.124;37.910;2023-03-05T15:05:06;3.90;;;2.85;;
78895;SDS011;68284;59.124;37.910;2023-03-05T15:07:33;4.90;;;3.65;;
78895;SDS011;68284;59.124;37.910;2023-03-05T15:10:02;3.75;;;2.90;;
78895;SDS011;68284;59.124;37.910;2023-03-05T15:12:29;5.22;;;4.55;;
78895;SDS011;68284;59.124;37.910;2023-03-05T15:14:55;5.80;;;3.88;;
78895;SDS011;68284;59.124;37.910;2023-03-05T15:17:25;6.00;;;5.03;;
78895;SDS011;68284;59.124;37.910;2023-03-05T15:20:00;6.57;;;4.60;;
78895;SDS011;68284;59.124;37.910;2023-03-05T15:22:27;8.02;;;4.18;;
78895;SDS011;68284;59.124;37.910;2023-03-05T15:24:53;4.05;;;3.35;;
78895;SDS011;68284;59.124;37.910;2023-03-05T15:27:19;4.57;;;2.95;;
78895;SDS011;68284;59.124;37.910;2023-03-05T15:29:45;5.38;;;3.63;;
78895;SDS011;68284;59.124;37.910;2023-03-05T15:32:12;5.15;;;4.10;;
78895;SDS011;68284;59.124;37.910;2023-03-05T15:34:38;4.32;;;3.90;;
78895;SDS011;68284;59.124;37.910;2023-03-05T15:37:04;4.80;;;3.30;;
78895;SDS011;68284;59.124;37.910;2023-03-05T15:39:30;5.47;;;2.85;;
78895;SDS011;68284;59.124;37.910;2023-03-05T15:41:57;5.78;;;3.28;;
78895;SDS011;68284;59.124;37.910;2023-03-05T15:44:23;6.82;;;5.20;;
78895;SDS011;68284;59.124;37.910;2023-03-05T15:46:49;5.00;;;3.92;;
78895;SDS011;68284;59.124;37.910;2023-03-05T15:49:16;3.63;;;2.90;;
78895;SDS011;68284;59.124;37.910;2023-03-05T15:51:42;4.30;;;3.17;;
78895;SDS011;68284;59.124;37.910;2023-03-05T15:54:09;4.05;;;2.85;;
78895;SDS011;68284;59.124;37.910;2023-03-05T15:56:35;4.20;;;3.80;;
78895;SDS011;68284;59.124;37.910;2023-03-05T15:59:01;4.78;;;2.97;;
78895;SDS011;68284;59.124;37.910;2023-03-05T16:01:27;4.38;;;3.78;;
78895;SDS011;68284;59.124;37.910;2023-03-05T16:03:54;4.93;;;2.83;;
78895;SDS011;68284;59.124;37.910;2023-03-05T16:06:20;4.82;;;4.10;;
78895;SDS011;68284;59.124;37.910;2023-03-05T16:08:48;7.82;;;7.03;;
78895;SDS011;68284;59.124;37.910;2023-03-05T16:11:17;6.30;;;4.03;;
78895;SDS011;68284;59.124;37.910;2023-03-05T16:13:43;4.13;;;2.72;;
78895;SDS011;68284;59.124;37.910;2023-03-05T16:16:09;4.25;;;2.97;;
78895;SDS011;68284;59.124;37.910;2023-03-05T16:18:38;4.20;;;3.08;;
78895;SDS011;68284;59.124;37.910;2023-03-05T16:21:08;4.85;;;3.60;;
78895;SDS011;68284;59.124;37.910;2023-03-05T16:23:44;4.07;;;3.30;;
78895;SDS011;68284;59.124;37.910;2023-03-05T16:26:11;3.60;;;2.58;;
78895;SDS011;68284;59.124;37.910;2023-03-05T16:28:37;3.63;;;2.47;;
78895;SDS011;68284;59.124;37.910;2023-03-05T16:34:00;4.38;;;3.15;;
78895;SDS011;68284;59.124;37.910;2023-03-05T16:36:29;6.03;;;2.80;;
78895;SDS011;68284;59.124;37.910;2023-03-05T16:41:57;3.83;;;2.70;;
78895;SDS011;68284;59.124;37.910;2023-03-05T16:44:23;4.00;;;2.95;;
78895;SDS011;68284;59.124;37.910;2023-03-05T16:46:50;4.30;;;3.13;;
78895;SDS011;68284;59.124;37.910;2023-03-05T16:49:19;4.80;;;4.18;;
78895;SDS011;68284;59.124;37.910;2023-03-05T16:51:46;3.90;;;3.50;;
78895;SDS011;68284;59.124;37.910;2023-03-05T16:54:12;3.50;;;2.67;;
78895;SDS011;68284;59.124;37.910;2023-03-05T16:56:39;6.00;;;3.50;;
78895;SDS011;68284;59.124;37.910;2023-03-05T16:59:05;4.75;;;3.63;;
78895;SDS011;68284;59.124;37.910;2023-03-05T17:01:38;6.50;;;5.38;;
78895;SDS011;68284;59.124;37.910;2023-03-05T17:04:06;3.50;;;2.58;;
78895;SDS011;68284;59.124;37.910;2023-03-05T17:06:33;3.85;;;3.45;;
78895;SDS011;68284;59.124;37.910;2023-03-05T17:08:59;4.25;;;2.38;;
78895;SDS011;68284;59.124;37.910;2023-03-05T17:11:27;5.97;;;3.72;;
78895;SDS011;68284;59.124;37.910;2023-03-05T17:13:55;5.18;;;4.68;;
78895;SDS011;68284;59.124;37.910;2023-03-05T17:16:21;6.63;;;4.75;;
78895;SDS011;68284;59.124;37.910;2023-03-05T17:18:48;5.40;;;4.18;;
78895;SDS011;68284;59.124;37.910;2023-03-05T17:21:14;6.50;;;3.63;;
78895;SDS011;68284;59.124;37.910;2023-03-05T17:23:41;3.97;;;2.60;;
78895;SDS011;68284;59.124;37.910;2023-03-05T17:26:12;5.32;;;3.92;;
78895;SDS011;68284;59.124;37.910;2023-03-05T17:28:40;3.70;;;3.40;;
78895;SDS011;68284;59.124;37.910;2023-03-05T17:31:07;3.78;;;2.80;;
78895;SDS011;68284;59.124;37.910;2023-03-05T17:33:34;3.15;;;2.42;;
78895;SDS011;68284;59.124;37.910;2023-03-05T17:38:28;5.57;;;3.05;;
78895;SDS011;68284;59.124;37.910;2023-03-05T17:40:55;4.22;;;2.85;;
78895;SDS011;68284;59.124;37.910;2023-03-05T17:43:22;3.70;;;2.90;;
78895;SDS011;68284;59.124;37.910;2023-03-05T17:45:48;3.83;;;3.42;;
78895;SDS011;68284;59.124;37.910;2023-03-05T17:48:15;2.92;;;2.35;;
78895;SDS011;68284;59.124;37.910;2023-03-05T17:50:41;4.28;;;2.80;;
78895;SDS011;68284;59.124;37.910;2023-03-05T17:56:07;3.03;;;2.33;;
78895;SDS011;68284;59.124;37.910;2023-03-05T17:58:34;3.38;;;3.05;;
78895;SDS011;68284;59.124;37.910;2023-03-05T18:01:01;3.40;;;2.63;;
78895;SDS011;68284;59.124;37.910;2023-03-05T18:03:29;3.20;;;2.90;;
78895;SDS011;68284;59.124;37.910;2023-03-05T18:05:55;5.07;;;3.47;;
78895;SDS011;68284;59.124;37.910;2023-03-05T18:08:21;4.10;;;3.70;;
78895;SDS011;68284;59.124;37.910;2023-03-05T18:10:48;4.10;;;2.92;;
78895;SDS011;68284;59.124;37.910;2023-03-05T18:13:14;2.97;;;2.22;;
78895;SDS011;68284;59.124;37.910;2023-03-05T18:15:41;3.88;;;2.80;;
78895;SDS011;68284;59.124;37.910;2023-03-05T18:18:12;2.90;;;2.47;;
78895;SDS011;68284;59.124;37.910;2023-03-05T18:20:40;4.50;;;3.58;;
78895;SDS011;68284;59.124;37.910;2023-03-05T18:23:08;3.33;;;3.00;;
78895;SDS011;68284;59.124;37.910;2023-03-05T18:25:34;3.75;;;2.60;;
78895;SDS011;68284;59.124;37.910;2023-03-05T18:28:08;5.43;;;2.72;;
78895;SDS011;68284;59.124;37.910;2023-03-05T18:30:35;3.80;;;2.38;;
78895;SDS011;68284;59.124;37.910;2023-03-05T18:33:03;3.63;;;3.33;;
78895;SDS011;68284;59.124;37.910;2023-03-05T18:35:29;2.45;;;2.22;;
78895;SDS011;68284;59.124;37.910;2023-03-05T18:37:57;4.03;;;2.65;;
78895;SDS011;68284;59.124;37.910;2023-03-05T18:40:24;2.97;;;2.28;;
78895;SDS011;68284;59.124;37.910;2023-03-05T18:42:52;3.28;;;2.58;;
78895;SDS011;68284;59.124;37.910;2023-03-05T18:45:18;2.65;;;2.38;;
78895;SDS011;68284;59.124;37.910;2023-03-05T18:47:46;6.22;;;3.40;;
78895;SDS011;68284;59.124;37.910;2023-03-05T18:50:14;4.70;;;3.30;;
78895;SDS011;68284;59.124;37.910;2023-03-05T18:52:43;3.55;;;3.20;;
78895;SDS011;68284;59.124;37.910;2023-03-05T18:55:11;3.10;;;2.33;;
78895;SDS011;68284;59.124;37.910;2023-03-05T18:57:47;4.00;;;2.63;;
78895;SDS011;68284;59.124;37.910;2023-03-05T19:00:17;3.20;;;2.90;;
78895;SDS011;68284;59.124;37.910;2023-03-05T19:02:45;5.15;;;3.85;;
78895;SDS011;68284;59.124;37.910;2023-03-05T19:05:12;3.28;;;2.80;;
78895;SDS011;68284;59.124;37.910;2023-03-05T19:07:43;4.40;;;3.35;;
78895;SDS011;68284;59.124;37.910;2023-03-05T19:10:10;3.80;;;3.08;;
78895;SDS011;68284;59.124;37.910;2023-03-05T19:12:38;4.63;;;4.20;;
78895;SDS011;68284;59.124;37.910;2023-03-05T19:15:23;4.18;;;3.30;;
78895;SDS011;68284;59.124;37.910;2023-03-05T19:17:49;3.88;;;3.47;;
78895;SDS011;68284;59.124;37.910;2023-03-05T19:20:16;5.38;;;3.10;;
78895;SDS011;68284;59.124;37.910;2023-03-05T19:22:43;4.43;;;3.80;;
78895;SDS011;68284;59.124;37.910;2023-03-05T19:25:09;4.10;;;2.42;;
78895;SDS011;68284;59.124;37.910;2023-03-05T19:27:36;4.60;;;4.05;;
78895;SDS011;68284;59.124;37.910;2023-03-05T19:30:03;4.28;;;3.58;;
78895;SDS011;68284;59.124;37.910;2023-03-05T19:32:30;2.42;;;2.22;;
78895;SDS011;68284;59.124;37.910;2023-03-05T19:34:56;2.85;;;2.50;;
78895;SDS011;68284;59.124;37.910;2023-03-05T19:37:23;4.28;;;2.63;;
78895;SDS011;68284;59.124;37.910;2023-03-05T19:39:50;3.65;;;2.90;;
78895;SDS011;68284;59.124;37.910;2023-03-05T19:42:16;2.83;;;2.55;;
78895;SDS011;68284;59.124;37.910;2023-03-05T19:44:43;4.78;;;2.53;;
78895;SDS011;68284;59.124;37.910;2023-03-05T19:47:10;3.35;;;2.97;;
78895;SDS011;68284;59.124;37.910;2023-03-05T19:49:36;4.35;;;2.55;;
78895;SDS011;68284;59.124;37.910;2023-03-05T19:52:02;4.88;;;4.13;;
78895;SDS011;68284;59.124;37.910;2023-03-05T19:54:30;3.53;;;3.30;;
78895;SDS011;68284;59.124;37.910;2023-03-05T19:56:57;2.97;;;2.58;;
78895;SDS011;68284;59.124;37.910;2023-03-05T19:59:24;5.00;;;3.58;;
78895;SDS011;68284;59.124;37.910;2023-03-05T20:01:50;4.53;;;4.13;;
78895;SDS011;68284;59.124;37.910;2023-03-05T20:04:18;2.47;;;2.15;;
78895;SDS011;68284;59.124;37.910;2023-03-05T20:06:46;3.40;;;2.75;;
78895;SDS011;68284;59.124;37.910;2023-03-05T20:09:12;2.95;;;2.60;;
78895;SDS011;68284;59.124;37.910;2023-03-05T20:11:40;2.80;;;2.33;;
78895;SDS011;68284;59.124;37.910;2023-03-05T20:16:34;3.08;;;2.78;;
78895;SDS011;68284;59.124;37.910;2023-03-05T20:19:03;2.88;;;2.33;;
78895;SDS011;68284;59.124;37.910;2023-03-05T20:21:38;5.18;;;3.55;;
78895;SDS011;68284;59.124;37.910;2023-03-05T20:24:07;4.10;;;2.95;;
78895;SDS011;68284;59.124;37.910;2023-03-05T20:26:36;4.45;;;3.08;;
78895;SDS011;68284;59.124;37.910;2023-03-05T20:29:04;4.45;;;3.00;;
78895;SDS011;68284;59.124;37.910;2023-03-05T20:31:32;7.35;;;3.95;;
78895;SDS011;68284;59.124;37.910;2023-03-05T20:34:02;5.78;;;3.55;;
78895;SDS011;68284;59.124;37.910;2023-03-05T20:36:30;11.93;;;7.32;;
78895;SDS011;68284;59.124;37.910;2023-03-05T20:38:56;6.95;;;4.80;;
78895;SDS011;68284;59.124;37.910;2023-03-05T20:41:22;4.65;;;3.10;;
78895;SDS011;68284;59.124;37.910;2023-03-05T20:43:49;5.97;;;4.13;;
78895;SDS011;68284;59.124;37.910;2023-03-05T20:46:26;4.15;;;3.03;;
78895;SDS011;68284;59.124;37.910;2023-03-05T20:48:56;3.20;;;2.05;;
78895;SDS011;68284;59.124;37.910;2023-03-05T20:51:25;4.22;;;2.63;;
78895;SDS011;68284;59.124;37.910;2023-03-05T20:53:57;3.75;;;2.08;;
78895;SDS011;68284;59.124;37.910;2023-03-05T20:56:27;3.72;;;3.05;;
78895;SDS011;68284;59.124;37.910;2023-03-05T20:58:54;6.72;;;3.33;;
78895;SDS011;68284;59.124;37.910;2023-03-05T21:01:23;3.47;;;2.90;;
78895;SDS011;68284;59.124;37.910;2023-03-05T21:03:50;6.88;;;3.85;;
78895;SDS011;68284;59.124;37.910;2023-03-05T21:06:18;6.85;;;3.90;;
78895;SDS011;68284;59.124;37.910;2023-03-05T21:08:45;7.40;;;4.22;;
78895;SDS011;68284;59.124;37.910;2023-03-05T21:11:11;9.45;;;5.28;;
78895;SDS011;68284;59.124;37.910;2023-03-05T21:13:38;11.95;;;5.45;;
78895;SDS011;68284;59.124;37.910;2023-03-05T21:16:05;12.23;;;7.45;;
78895;SDS011;68284;59.124;37.910;2023-03-05T21:18:33;13.82;;;6.82;;
78895;SDS011;68284;59.124;37.910;2023-03-05T21:21:00;15.80;;;10.73;;
78895;SDS011;68284;59.124;37.910;2023-03-05T21:23:27;18.23;;;10.20;;
78895;SDS011;68284;59.124;37.910;2023-03-05T21:25:53;19.98;;;10.15;;
78895;SDS011;68284;59.124;37.910;2023-03-05T21:28:20;19.23;;;9.68;;
78895;SDS011;68284;59.124;37.910;2023-03-05T21:30:47;21.80;;;10.18;;
78895;SDS011;68284;59.124;37.910;2023-03-05T21:33:23;21.67;;;9.57;;
78895;SDS011;68284;59.124;37.910;2023-03-05T21:35:51;23.00;;;11.13;;
78895;SDS011;68284;59.124;37.910;2023-03-05T21:38:18;16.73;;;8.77;;
78895;SDS011;68284;59.124;37.910;2023-03-05T21:40:47;7.38;;;5.07;;
78895;SDS011;68284;59.124;37.910;2023-03-05T21:45:42;5.45;;;4.15;;
78895;SDS011;68284;59.124;37.910;2023-03-05T21:48:11;6.82;;;5.45;;
78895;SDS011;68284;59.124;37.910;2023-03-05T21:50:39;7.38;;;4.72;;
78895;SDS011;68284;59.124;37.910;2023-03-05T21:53:06;13.20;;;7.20;;
78895;SDS011;68284;59.124;37.910;2023-03-05T21:58:33;11.50;;;7.63;;
78895;SDS011;68284;59.124;37.910;2023-03-05T22:01:00;12.68;;;7.65;;
78895;SDS011;68284;59.124;37.910;2023-03-05T22:03:27;12.80;;;7.57;;
78895;SDS011;68284;59.124;37.910;2023-03-05T22:05:54;12.90;;;5.80;;
78895;SDS011;68284;59.124;37.910;2023-03-05T22:08:21;8.55;;;5.18;;
78895;SDS011;68284;59.124;37.910;2023-03-05T22:10:47;7.03;;;4.88;;
78895;SDS011;68284;59.124;37.910;2023-03-05T22:13:14;6.63;;;5.20;;
78895;SDS011;68284;59.124;37.910;2023-03-05T22:15:46;10.30;;;5.68;;
78895;SDS011;68284;59.124;37.910;2023-03-05T22:18:15;10.55;;;6.45;;
78895;SDS011;68284;59.124;37.910;2023-03-05T22:20:44;10.93;;;7.03;;
78895;SDS011;68284;59.124;37.910;2023-03-05T22:23:12;12.48;;;6.78;;
78895;SDS011;68284;59.124;37.910;2023-03-05T22:25:39;14.73;;;6.45;;
78895;SDS011;68284;59.124;37.910;2023-03-05T22:28:06;13.02;;;7.70;;
78895;SDS011;68284;59.124;37.910;2023-03-05T22:30:34;12.23;;;6.68;;
78895;SDS011;68284;59.124;37.910;2023-03-05T22:33:00;14.70;;;7.63;;
78895;SDS011;68284;59.124;37.910;2023-03-05T22:35:28;11.40;;;7.38;;
78895;SDS011;68284;59.124;37.910;2023-03-05T22:37:54;13.35;;;5.85;;
78895;SDS011;68284;59.124;37.910;2023-03-05T22:40:21;11.80;;;6.53;;
78895;SDS011;68284;59.124;37.910;2023-03-05T22:42:48;9.27;;;5.57;;
78895;SDS011;68284;59.124;37.910;2023-03-05T22:45:15;11.23;;;7.10;;
78895;SDS011;68284;59.124;37.910;2023-03-05T22:47:44;14.93;;;6.78;;
78895;SDS011;68284;59.124;37.910;2023-03-05T22:50:15;9.23;;;5.65;;
78895;SDS011;68284;59.124;37.910;2023-03-05T22:52:44;13.02;;;6.18;;
78895;SDS011;68284;59.124;37.910;2023-03-05T22:55:12;7.03;;;4.20;;
78895;SDS011;68284;59.124;37.910;2023-03-05T22:57:39;6.68;;;5.00;;
78895;SDS011;68284;59.124;37.910;2023-03-05T23:00:07;7.97;;;4.63;;
78895;SDS011;68284;59.124;37.910;2023-03-05T23:02:39;5.78;;;3.65;;
78895;SDS011;68284;59.124;37.910;2023-03-05T23:05:06;8.38;;;4.15;;
78895;SDS011;68284;59.124;37.910;2023-03-05T23:07:34;8.18;;;4.53;;
78895;SDS011;68284;59.124;37.910;2023-03-05T23:10:07;5.18;;;3.17;;
78895;SDS011;68284;59.124;37.910;2023-03-05T23:12:47;7.18;;;4.00;;
78895;SDS011;68284;59.124;37.910;2023-03-05T23:15:17;8.18;;;4.35;;
78895;SDS011;68284;59.124;37.910;2023-03-05T23:18:04;6.05;;;3.85;;
78895;SDS011;68284;59.124;37.910;2023-03-05T23:20:34;5.93;;;4.68;;
78895;SDS011;68284;59.124;37.910;2023-03-05T23:23:02;4.50;;;2.92;;
78895;SDS011;68284;59.124;37.910;2023-03-05T23:25:30;6.85;;;3.80;;
78895;SDS011;68284;59.124;37.910;2023-03-05T23:27:57;5.90;;;3.33;;
78895;SDS011;68284;59.124;37.910;2023-03-05T23:30:25;5.60;;;3.80;;
78895;SDS011;68284;59.124;37.910;2023-03-05T23:33:01;6.30;;;3.80;;
78895;SDS011;68284;59.124;37.910;2023-03-05T23:35:38;7.20;;;4.35;;
78895;SDS011;68284;59.124;37.910;2023-03-05T23:38:07;5.97;;;3.88;;
78895;SDS011;68284;59.124;37.910;2023-03-05T23:40:38;6.53;;;4.45;;
78895;SDS011;68284;59.124;37.910;2023-03-05T23:43:06;5.57;;;4.47;;
78895;SDS011;68284;59.124;37.910;2023-03-05T23:45:33;7.20;;;4.95;;
78895;SDS011;68284;59.124;37.910;2023-03-05T23:47:59;7.53;;;4.40;;
78895;SDS011;68284;59.124;37.910;2023-03-05T23:50:27;6.38;;;4.60;;
78895;SDS011;68284;59.124;37.910;2023-03-05T23:52:58;10.27;;;3.72;;
78895;SDS011;68284;59.124;37.910;2023-03-05T23:55:27;5.85;;;4.53;;
78895;SDS011;68284;59.124;37.910;2023-03-05T23:57:56;6.20;;;4.50;;
